Portada
METAR-TAF:

METAR-TAF

Aeroports :

Bhavnagar, Índia

latitud: 21-45-08N, longitud: 72-11-07E, altitud: 6 m

Observació

L'informe es va fer fa 7 hores i 20 minuts, a les 12:00 UTC
Vent 18 kt del Sud/Sud-Est
Temperatura 34°C
Humitat 63%
Pressió 996 hPa
Visibilitat: 6000 m
Escasses núvols a una alçada de 2000 ft
Núvols disperses a una alçada de 2500 ft

METAR: VABV 141200Z 16018KT 6000 FEW020 SCT025 34/26 Q0996

Hora: 00:50 (19:20 UTC)

Pronòstic

L'informe es va fer fa 8 hores i 20 minuts, a les 11:00 UTC
Pronòstic vàlid del 14 a les 12 UTC al 14 a les 21 UTC
Vent 12 kt del Sud-Est
Visibilitat: 5000 m
Núvols disperses a una alçada de 2000 ft
calitja
Temporalment
l' 14 a les 12 UTC al 14 a les 16 UTC
Vent 18 kt del Sud/Sud-Oest
Evolucionant progressivament
l' 14 a les 17 UTC al 14 a les 19 UTC
Vent 8 kt del Sud-Oest
Escasses núvols a una alçada de 2000 ft

TAF: VABV 141100Z 1412/1421 14012KT 5000 HZ SCT020 TEMPO 1412/1416 20018KT BECMG 1417/1419 23008KT FEW020

Observacions i pronòstics meteorològics de més de 4000 aeroports (METAR i TAF).

Les estacions disponibles són els punts grocs i vermells al mapa.

Posi el ratolí al punt desitjat per veure el nom de l'estació.

Feu clic per veure les observacions i els pronòstics meteorològics.

Per canviar el mapa: feu clic els botons verds amb una creu de color negre per apropar; al botó verd amb un guió per allunyar la imatge; o en les fletxes verdes per a mapes adjacents.


METAR-TAF: